createdAt,value
2023-12-19T00:02:09.889Z,1.30
2023-12-19T00:04:40.260Z,1.40
2023-12-19T00:07:10.153Z,1.30
2023-12-19T00:09:41.742Z,1.20
2023-12-19T00:12:09.861Z,1.20
2023-12-19T00:14:36.861Z,1.30
2023-12-19T00:17:03.905Z,1.50
2023-12-19T00:19:34.616Z,1.70
2023-12-19T00:22:07.451Z,1.70
2023-12-19T00:24:36.746Z,1.70
2023-12-19T00:27:06.365Z,1.70
2023-12-19T00:29:35.814Z,1.70
2023-12-19T00:32:02.824Z,1.70
2023-12-19T00:34:29.950Z,1.70
2023-12-19T00:36:56.998Z,1.70
2023-12-19T00:39:29.176Z,1.70
2023-12-19T00:41:56.157Z,1.70
2023-12-19T00:44:28.694Z,1.80
2023-12-19T00:47:04.589Z,1.80
2023-12-19T00:49:32.303Z,1.80
2023-12-19T00:52:07.769Z,1.60
2023-12-19T00:54:37.405Z,1.30
2023-12-19T00:57:07.323Z,1.30
2023-12-19T00:59:38.437Z,1.40
2023-12-19T01:02:09.299Z,1.50
2023-12-19T01:04:41.446Z,1.50
2023-12-19T01:07:10.415Z,1.60
2023-12-19T01:09:41.493Z,1.40
2023-12-19T01:12:08.621Z,1.30
2023-12-19T01:14:38.589Z,1.30
2023-12-19T01:17:07.679Z,1.40
2023-12-19T01:19:44.380Z,1.40
2023-12-19T01:22:12.616Z,1.50
2023-12-19T01:24:42.048Z,1.50
2023-12-19T01:27:11.920Z,1.40
2023-12-19T01:29:38.963Z,1.40
2023-12-19T01:32:09.324Z,1.30
2023-12-19T01:34:39.203Z,1.20
2023-12-19T01:37:09.225Z,1.30
2023-12-19T01:39:40.640Z,1.40
2023-12-19T01:42:08.160Z,1.40
2023-12-19T01:44:35.197Z,1.20
2023-12-19T01:47:02.135Z,1.00
2023-12-19T01:49:34.655Z,0.80
2023-12-19T01:52:10.852Z,0.80
2023-12-19T01:54:41.058Z,1.00
2023-12-19T01:57:08.230Z,0.90
2023-12-19T01:59:37.676Z,0.70
2023-12-19T02:02:06.368Z,0.60
2023-12-19T02:04:33.830Z,0.50
2023-12-19T02:07:06.394Z,0.30
2023-12-19T02:09:34.594Z,0.40
2023-12-19T02:12:06.492Z,0.40
2023-12-19T02:14:36.115Z,0.50
2023-12-19T02:17:10.499Z,0.50
2023-12-19T02:19:53.563Z,0.30
2023-12-19T02:22:22.459Z,0.50
2023-12-19T02:24:51.199Z,0.70
2023-12-19T02:27:24.006Z,0.60
2023-12-19T02:29:53.382Z,0.80
2023-12-19T02:32:20.305Z,0.90
2023-12-19T02:34:47.529Z,0.70
2023-12-19T02:37:14.615Z,0.70
2023-12-19T02:39:41.511Z,0.50
2023-12-19T02:42:08.380Z,0.60
2023-12-19T02:44:37.351Z,0.50
2023-12-19T02:47:06.363Z,0.30
2023-12-19T02:49:33.381Z,0.40
2023-12-19T02:52:02.035Z,0.70
2023-12-19T02:54:31.344Z,0.70
2023-12-19T02:56:58.362Z,0.50
2023-12-19T02:59:25.371Z,0.30
2023-12-19T03:01:55.269Z,0.30
2023-12-19T03:04:25.790Z,0.20
2023-12-19T03:06:58.683Z,0.10
2023-12-19T03:09:34.971Z,0.30
2023-12-19T03:12:12.148Z,0.40
2023-12-19T03:14:49.538Z,0.70
2023-12-19T03:17:20.522Z,0.70
2023-12-19T03:20:01.004Z,0.80
2023-12-19T03:22:30.436Z,0.80
2023-12-19T03:25:08.871Z,0.80
2023-12-19T03:27:46.621Z,0.40
2023-12-19T03:30:16.076Z,0.40
2023-12-19T03:32:45.850Z,0.50
2023-12-19T03:35:16.689Z,0.20
2023-12-19T03:37:53.250Z,0.20
2023-12-19T03:40:23.186Z,0.30
2023-12-19T03:42:53.068Z,0.40
2023-12-19T03:45:21.740Z,0.20
2023-12-19T03:47:51.362Z,0.10
2023-12-19T03:50:21.736Z,0.00
2023-12-19T03:52:51.311Z,0.10
2023-12-19T03:55:35.875Z,0.40
2023-12-19T04:01:35.779Z,0.50
2023-12-19T04:04:14.896Z,0.40
2023-12-19T04:07:04.754Z,0.50
2023-12-19T04:12:33.465Z,0.30
2023-12-19T04:15:09.038Z,0.20
2023-12-19T04:18:26.060Z,0.30
2023-12-19T04:21:01.089Z,0.20
2023-12-19T04:23:58.649Z,-0.20
2023-12-19T04:26:50.935Z,-0.50
2023-12-19T04:30:12.944Z,-0.40
2023-12-19T04:38:56.818Z,-0.30
2023-12-19T04:48:42.294Z,-0.40
2023-12-19T04:51:27.906Z,-0.20
2023-12-19T04:54:05.363Z,-0.40
2023-12-19T05:02:52.025Z,-0.40
2023-12-19T05:05:24.083Z,-0.50
2023-12-19T05:07:57.686Z,-0.60
2023-12-19T05:10:30.329Z,-0.70
2023-12-19T05:13:08.224Z,-0.50
2023-12-19T05:15:50.130Z,-0.30
2023-12-19T05:18:48.031Z,-0.40
2023-12-19T05:25:08.874Z,-0.60
2023-12-19T05:28:25.918Z,-0.60
2023-12-19T05:31:33.161Z,-0.20
2023-12-19T05:34:37.227Z,-0.30
2023-12-19T05:37:14.152Z,-0.50
2023-12-19T05:43:13.599Z,-0.80
2023-12-19T05:46:28.895Z,-0.70
2023-12-19T05:59:41.119Z,-1.00
2023-12-19T06:06:11.687Z,-1.00
2023-12-19T06:09:30.375Z,-1.00
2023-12-19T06:12:12.584Z,-0.90
2023-12-19T06:15:09.810Z,-0.80
2023-12-19T06:24:49.106Z,-0.20
2023-12-19T06:32:27.220Z,-0.40
2023-12-19T06:39:13.345Z,-0.30
2023-12-19T06:44:44.310Z,-0.60
2023-12-19T06:47:11.065Z,-0.80
2023-12-19T06:49:38.017Z,-0.80
2023-12-19T06:52:05.423Z,-0.60
2023-12-19T06:54:36.205Z,-0.70
2023-12-19T06:57:02.970Z,-0.80
2023-12-19T06:59:29.763Z,-0.60
2023-12-19T07:01:56.886Z,-0.30
2023-12-19T07:04:23.844Z,-0.40
2023-12-19T07:06:50.699Z,-0.70
2023-12-19T07:09:17.642Z,-0.80
2023-12-19T07:11:44.446Z,-0.70
2023-12-19T07:14:11.450Z,-0.80
2023-12-19T07:16:38.191Z,-0.80
2023-12-19T07:19:05.485Z,-0.80
2023-12-19T07:21:36.635Z,-0.90
2023-12-19T07:24:04.184Z,-1.00
2023-12-19T07:26:31.324Z,-1.00
2023-12-19T07:28:59.998Z,-1.00
2023-12-19T07:31:33.978Z,-0.90
2023-12-19T07:34:05.226Z,-0.80
2023-12-19T07:36:33.954Z,-0.90
2023-12-19T07:39:01.119Z,-1.00
2023-12-19T07:41:28.622Z,-0.90
2023-12-19T07:43:56.442Z,-0.70
2023-12-19T07:46:24.003Z,-0.80
2023-12-19T07:48:50.991Z,-0.70
2023-12-19T07:51:22.116Z,-0.60
2023-12-19T07:53:49.857Z,-0.70
2023-12-19T07:56:16.811Z,-0.40
2023-12-19T07:58:44.575Z,-0.60
2023-12-19T08:01:13.235Z,-0.70
2023-12-19T08:03:41.499Z,-0.50
2023-12-19T08:06:08.593Z,-0.30
2023-12-19T08:08:35.409Z,-0.10
2023-12-19T08:11:02.305Z,-0.20
2023-12-19T08:13:30.511Z,-0.40
2023-12-19T08:15:57.586Z,-0.60
2023-12-19T08:18:24.667Z,-0.40
2023-12-19T08:20:51.640Z,-0.30
2023-12-19T08:23:18.426Z,-0.20
2023-12-19T08:25:45.298Z,0.00
2023-12-19T08:28:12.761Z,0.10
2023-12-19T08:30:42.822Z,0.10
2023-12-19T08:33:09.962Z,0.10
2023-12-19T08:35:37.323Z,-0.10
2023-12-19T08:38:04.433Z,-0.20
2023-12-19T08:40:31.532Z,0.00
2023-12-19T08:42:58.954Z,0.10
2023-12-19T08:45:27.905Z,0.20
2023-12-19T08:47:55.800Z,0.10
2023-12-19T08:50:22.872Z,0.00
2023-12-19T08:52:49.898Z,0.10
2023-12-19T08:55:16.759Z,0.20
2023-12-19T08:57:46.871Z,0.30
2023-12-19T09:00:19.550Z,0.30
2023-12-19T09:02:47.525Z,0.30
2023-12-19T09:05:19.031Z,0.30
2023-12-19T09:07:50.608Z,0.40
2023-12-19T09:10:18.577Z,0.50
2023-12-19T09:12:46.257Z,0.50
2023-12-19T09:15:13.384Z,0.50
2023-12-19T09:17:40.714Z,0.60
2023-12-19T09:20:09.415Z,0.60
2023-12-19T09:22:39.394Z,0.60
2023-12-19T09:25:15.626Z,0.50
2023-12-19T09:27:44.039Z,0.50
2023-12-19T09:30:12.297Z,0.60
2023-12-19T09:32:41.111Z,0.70
2023-12-19T09:35:09.218Z,0.70
2023-12-19T09:37:37.846Z,0.60
2023-12-19T09:40:06.133Z,0.70
2023-12-19T09:42:33.293Z,0.70
2023-12-19T09:45:00.636Z,0.90
2023-12-19T09:47:30.844Z,1.00
2023-12-19T09:50:02.687Z,0.90
2023-12-19T09:52:30.250Z,0.90
2023-12-19T09:54:57.112Z,1.10
2023-12-19T09:57:25.270Z,1.10
2023-12-19T09:59:56.967Z,1.20
2023-12-19T10:02:26.540Z,1.20
2023-12-19T10:04:54.159Z,1.20
2023-12-19T10:07:24.534Z,1.20
2023-12-19T10:09:58.310Z,1.30
2023-12-19T10:12:33.808Z,1.30
2023-12-19T10:15:16.020Z,1.20
2023-12-19T10:18:09.095Z,1.20
2023-12-19T10:20:38.188Z,1.20
2023-12-19T10:23:08.613Z,1.20
2023-12-19T10:25:43.190Z,1.20
2023-12-19T10:28:15.171Z,1.30
2023-12-19T10:30:45.421Z,1.30
2023-12-19T10:33:14.283Z,1.20
2023-12-19T10:35:43.978Z,1.20
2023-12-19T10:38:10.927Z,1.20
2023-12-19T10:40:38.801Z,1.20
2023-12-19T10:43:07.210Z,1.30
2023-12-19T10:45:35.301Z,1.30
2023-12-19T10:48:02.505Z,1.40
2023-12-19T10:50:30.612Z,1.40
2023-12-19T10:53:04.273Z,1.40
2023-12-19T10:55:48.809Z,1.40
2023-12-19T10:58:21.529Z,1.60
2023-12-19T11:00:52.299Z,1.70
2023-12-19T11:03:29.463Z,1.60
2023-12-19T11:05:57.488Z,1.70
2023-12-19T11:08:27.740Z,1.70
2023-12-19T11:11:03.699Z,1.80
2023-12-19T11:13:32.514Z,1.80
2023-12-19T11:16:12.662Z,1.80
2023-12-19T11:19:14.480Z,1.80
2023-12-19T11:22:10.350Z,1.80
2023-12-19T11:24:50.066Z,1.80
2023-12-19T11:27:22.842Z,1.80
2023-12-19T11:29:57.362Z,1.80
2023-12-19T11:32:30.466Z,1.90
2023-12-19T11:35:12.752Z,2.00
2023-12-19T11:37:42.062Z,1.90
2023-12-19T11:40:12.154Z,2.00
2023-12-19T11:42:39.057Z,2.00
2023-12-19T11:45:18.487Z,2.10
2023-12-19T11:47:46.848Z,2.10
2023-12-19T11:50:39.736Z,2.10
2023-12-19T11:53:09.851Z,2.10
2023-12-19T11:55:36.680Z,2.10
2023-12-19T11:58:13.862Z,2.10
2023-12-19T12:00:44.296Z,2.20
2023-12-19T12:03:13.734Z,2.20
2023-12-19T12:05:41.035Z,2.40
2023-12-19T12:08:14.274Z,2.40
2023-12-19T12:10:41.746Z,2.40
2023-12-19T12:13:08.877Z,2.50
2023-12-19T12:15:35.849Z,2.50
2023-12-19T12:18:07.910Z,2.50
2023-12-19T12:20:36.499Z,2.60
2023-12-19T12:23:04.213Z,2.60
2023-12-19T12:25:33.012Z,2.70
2023-12-19T12:28:16.180Z,2.70
2023-12-19T12:30:43.528Z,2.70
2023-12-19T12:33:10.916Z,2.80
2023-12-19T12:35:43.601Z,2.80
2023-12-19T12:38:19.897Z,2.80
2023-12-19T12:41:07.277Z,2.80
2023-12-19T12:43:40.455Z,2.80
2023-12-19T12:46:18.938Z,2.70
2023-12-19T12:48:55.546Z,2.70
2023-12-19T12:51:23.582Z,2.70
2023-12-19T12:53:58.774Z,2.60
2023-12-19T12:56:37.480Z,2.70
2023-12-19T12:59:16.146Z,2.60
2023-12-19T13:01:51.094Z,2.60
2023-12-19T13:04:28.404Z,2.60
2023-12-19T13:06:58.614Z,2.60
2023-12-19T13:09:29.615Z,2.60
2023-12-19T13:12:02.601Z,2.70
2023-12-19T13:14:29.670Z,2.70
2023-12-19T13:16:57.886Z,2.70
2023-12-19T13:19:30.405Z,2.70
2023-12-19T13:22:27.223Z,2.70
2023-12-19T13:24:54.289Z,2.70
2023-12-19T13:27:24.255Z,2.70
2023-12-19T13:29:51.160Z,2.80
2023-12-19T13:32:29.014Z,2.80
2023-12-19T13:34:56.239Z,2.80
2023-12-19T13:37:23.993Z,2.80
2023-12-19T13:39:58.165Z,2.80
2023-12-19T13:42:40.254Z,2.80
2023-12-19T13:45:19.124Z,2.80
2023-12-19T13:47:46.619Z,2.70
2023-12-19T13:53:51.019Z,2.70
2023-12-19T13:56:41.513Z,2.80
2023-12-19T13:59:31.795Z,2.80
2023-12-19T14:02:15.146Z,2.80
2023-12-19T14:05:06.620Z,2.80
2023-12-19T14:07:36.884Z,2.80
2023-12-19T14:10:39.129Z,2.90
2023-12-19T14:13:17.399Z,2.90
2023-12-19T14:16:08.060Z,2.90
2023-12-19T14:18:35.263Z,2.90
2023-12-19T14:21:06.946Z,2.90
2023-12-19T14:23:37.004Z,2.90
2023-12-19T14:26:17.288Z,2.90
2023-12-19T14:28:45.528Z,2.90
2023-12-19T14:31:37.099Z,2.90
2023-12-19T14:34:11.024Z,2.90
2023-12-19T14:36:46.498Z,2.90
2023-12-19T14:39:17.068Z,2.90
2023-12-19T14:41:55.633Z,3.00
2023-12-19T14:44:25.939Z,2.90
2023-12-19T14:46:59.052Z,2.90
2023-12-19T14:49:26.180Z,3.00
2023-12-19T14:52:06.857Z,2.90
2023-12-19T14:54:43.438Z,3.00
2023-12-19T14:57:10.660Z,3.00
2023-12-19T14:59:40.174Z,3.00
2023-12-19T15:02:07.037Z,3.00
2023-12-19T15:04:36.644Z,3.00
2023-12-19T15:07:04.734Z,3.10
2023-12-19T15:09:34.923Z,3.10
2023-12-19T15:12:03.458Z,3.10
2023-12-19T15:14:31.548Z,3.10
2023-12-19T15:17:01.547Z,3.10
2023-12-19T15:19:28.472Z,3.10
2023-12-19T15:21:55.430Z,3.00
2023-12-19T15:24:22.221Z,3.00
2023-12-19T15:26:49.038Z,3.00
2023-12-19T15:29:16.355Z,3.00
2023-12-19T15:31:47.949Z,3.10
2023-12-19T15:42:08.180Z,3.10
2023-12-19T15:44:35.927Z,3.00
2023-12-19T15:47:02.734Z,3.10
2023-12-19T15:49:29.677Z,3.10
2023-12-19T15:51:56.530Z,3.10
2023-12-19T15:54:23.582Z,3.10
2023-12-19T15:56:50.586Z,3.10
2023-12-19T15:59:19.063Z,3.20
2023-12-19T16:01:48.359Z,3.20
2023-12-19T16:04:15.690Z,3.10
2023-12-19T16:06:42.987Z,3.10
2023-12-19T16:09:09.961Z,3.20
2023-12-19T16:11:37.027Z,3.30
2023-12-19T16:14:04.145Z,3.20
2023-12-19T16:16:37.456Z,3.20
2023-12-19T16:19:06.500Z,3.30
2023-12-19T16:21:34.438Z,3.30
2023-12-19T16:24:04.412Z,3.30
2023-12-19T16:26:32.391Z,3.40
2023-12-19T16:28:59.541Z,3.40
2023-12-19T16:31:26.878Z,3.40
2023-12-19T16:33:54.088Z,3.50
2023-12-19T16:36:21.153Z,3.50
2023-12-19T16:38:49.819Z,3.50
2023-12-19T16:41:19.081Z,3.50
2023-12-19T16:43:47.127Z,3.60
2023-12-19T16:46:14.505Z,3.60
2023-12-19T16:48:41.788Z,3.70
2023-12-19T16:51:09.262Z,3.70
2023-12-19T16:53:36.338Z,3.70
2023-12-19T16:56:03.485Z,3.70
2023-12-19T16:58:39.770Z,3.70
2023-12-19T17:01:13.586Z,3.70
2023-12-19T17:03:42.065Z,3.80
2023-12-19T17:06:09.562Z,3.90
2023-12-19T17:08:36.382Z,3.80
2023-12-19T17:11:03.283Z,3.80
2023-12-19T17:13:30.087Z,3.80
2023-12-19T17:15:56.915Z,3.80
2023-12-19T17:18:23.900Z,3.80
2023-12-19T17:20:51.016Z,3.80
2023-12-19T17:23:20.515Z,3.80
2023-12-19T17:25:48.622Z,3.80
2023-12-19T17:28:15.670Z,3.80
2023-12-19T17:30:42.619Z,3.80
2023-12-19T17:33:10.381Z,3.80
2023-12-19T17:35:37.298Z,3.80
2023-12-19T17:38:04.353Z,3.80
2023-12-19T17:40:31.231Z,3.90
2023-12-19T17:42:58.174Z,3.90
2023-12-19T17:45:25.064Z,3.90
2023-12-19T17:47:52.033Z,3.90
2023-12-19T17:50:20.049Z,4.00
2023-12-19T17:52:47.078Z,4.00
2023-12-19T17:55:16.425Z,4.00
2023-12-19T17:57:44.527Z,4.00
2023-12-19T18:00:12.016Z,4.00
2023-12-19T18:02:39.055Z,4.00
2023-12-19T18:05:06.530Z,4.00
2023-12-19T18:07:33.831Z,4.00
2023-12-19T18:10:01.088Z,4.00
2023-12-19T18:12:30.852Z,4.10
2023-12-19T18:14:57.768Z,4.10
2023-12-19T18:17:25.687Z,4.20
2023-12-19T18:19:52.923Z,4.10
2023-12-19T18:22:19.964Z,4.10
2023-12-19T18:24:46.969Z,4.10
2023-12-19T18:27:13.768Z,4.20
2023-12-19T18:29:40.582Z,4.20
2023-12-19T18:32:07.695Z,4.20
2023-12-19T18:34:34.766Z,4.20
2023-12-19T18:37:01.728Z,4.20
2023-12-19T18:39:28.567Z,4.20
2023-12-19T18:41:55.444Z,4.20
2023-12-19T18:44:22.339Z,4.30
2023-12-19T18:46:49.269Z,4.30
2023-12-19T18:49:16.397Z,4.30
2023-12-19T18:51:43.659Z,4.30
2023-12-19T18:54:10.655Z,4.30
2023-12-19T18:56:38.000Z,4.30
2023-12-19T18:59:07.092Z,4.30
2023-12-19T19:01:35.923Z,4.30
2023-12-19T19:04:03.639Z,4.30
2023-12-19T19:06:33.292Z,4.30
2023-12-19T19:09:00.708Z,4.30
2023-12-19T19:11:28.628Z,4.30
2023-12-19T19:13:56.357Z,4.30
2023-12-19T19:16:23.455Z,4.30
2023-12-19T19:18:51.580Z,4.30
2023-12-19T19:21:18.837Z,4.30
2023-12-19T19:23:48.780Z,4.30
2023-12-19T19:26:15.670Z,4.30
2023-12-19T19:28:42.691Z,4.30
2023-12-19T19:31:09.728Z,4.30
2023-12-19T19:33:37.142Z,4.30
2023-12-19T19:36:05.817Z,4.30
2023-12-19T19:38:33.128Z,4.30
2023-12-19T19:41:01.709Z,4.30
2023-12-19T19:43:29.534Z,4.30
2023-12-19T19:46:03.617Z,4.30
2023-12-19T19:48:30.800Z,4.40
2023-12-19T19:50:57.884Z,4.40
2023-12-19T19:53:24.861Z,4.30
2023-12-19T19:55:51.840Z,4.40
2023-12-19T19:58:19.027Z,4.40
2023-12-19T20:00:46.062Z,4.40
2023-12-19T20:03:13.026Z,4.40
2023-12-19T20:05:40.138Z,4.40
2023-12-19T20:08:08.522Z,4.40
2023-12-19T20:10:35.795Z,4.40
2023-12-19T20:13:02.787Z,4.40
2023-12-19T20:15:29.583Z,4.40
2023-12-19T20:17:56.712Z,4.40
2023-12-19T20:20:23.694Z,4.40
2023-12-19T20:22:51.778Z,4.50
2023-12-19T20:25:20.198Z,4.50
2023-12-19T20:27:49.430Z,4.50
2023-12-19T20:30:19.257Z,4.50
2023-12-19T20:32:47.289Z,4.50
2023-12-19T20:35:14.777Z,4.50
2023-12-19T20:37:42.458Z,4.50
2023-12-19T20:40:13.684Z,4.60
2023-12-19T20:42:40.827Z,4.60
2023-12-19T20:45:08.205Z,4.60
2023-12-19T20:47:35.339Z,4.60
2023-12-19T20:50:02.984Z,4.60
2023-12-19T20:52:30.808Z,4.60
2023-12-19T20:55:00.698Z,4.60
2023-12-19T20:57:28.807Z,4.60
2023-12-19T20:59:56.499Z,4.70
2023-12-19T21:02:23.853Z,4.70
2023-12-19T21:04:51.158Z,4.70
2023-12-19T21:07:18.244Z,4.70
2023-12-19T21:09:53.469Z,4.70
2023-12-19T21:12:20.786Z,4.70
2023-12-19T21:14:47.908Z,4.70
2023-12-19T21:17:15.052Z,4.70
2023-12-19T21:19:44.757Z,4.80
2023-12-19T21:22:15.723Z,4.80
2023-12-19T21:24:44.271Z,4.80
2023-12-19T21:27:11.291Z,4.80
2023-12-19T21:29:38.137Z,4.80
2023-12-19T21:35:58.676Z,4.90
2023-12-19T21:38:57.778Z,4.90
2023-12-19T21:57:22.031Z,4.90
2023-12-19T21:59:43.291Z,5.00
2023-12-19T22:02:54.733Z,5.00
2023-12-19T22:08:52.487Z,5.00
2023-12-19T22:14:40.731Z,5.00
2023-12-19T22:14:45.122Z,5.10
2023-12-19T22:18:02.133Z,5.10
2023-12-19T22:24:32.327Z,5.10
2023-12-19T22:31:09.341Z,5.10
2023-12-19T22:34:31.420Z,5.20
2023-12-19T22:40:52.758Z,5.20
2023-12-19T22:43:56.787Z,5.20
2023-12-19T22:49:48.963Z,5.20
2023-12-19T22:52:24.649Z,5.20
2023-12-19T22:55:28.166Z,5.30
2023-12-19T22:58:27.075Z,5.30
2023-12-19T23:01:05.203Z,5.30
2023-12-19T23:03:50.725Z,5.30
2023-12-19T23:09:17.900Z,5.30
2023-12-19T23:11:47.590Z,5.30
2023-12-19T23:14:18.558Z,5.30
2023-12-19T23:16:45.775Z,5.30
2023-12-19T23:19:26.663Z,5.30
2023-12-19T23:21:55.124Z,5.20
2023-12-19T23:24:28.136Z,5.20
2023-12-19T23:26:58.032Z,5.20
2023-12-19T23:29:37.052Z,5.20
2023-12-19T23:32:28.476Z,5.20
2023-12-19T23:34:56.442Z,5.20
2023-12-19T23:37:23.556Z,5.10
2023-12-19T23:39:53.148Z,5.10
2023-12-19T23:42:21.311Z,5.10
2023-12-19T23:44:48.565Z,5.10
2023-12-19T23:47:22.468Z,5.10
2023-12-19T23:50:00.863Z,5.10
2023-12-19T23:52:27.907Z,5.10
2023-12-19T23:55:03.421Z,5.10
2023-12-19T23:57:33.842Z,5.10
